Time;durP1;ratioP1;P1;durP2;ratioP2;P2;SDS_P1;SDS_P2;PMS_P1;PMS_P2;Temp;Humidity;BMP_temperature;BMP_pressure;BME280_temperature;BME280_humidity;BME280_pressure;Samples;Min_cycle;Max_cycle;Signal;HPM_P1;HPM_P2
2023/04/23 00:01:20;;;;;;;74.03;47.95;;;;;;;8.09;100.00;100684.13;10363348;28;20081;-81
2023/04/23 00:06:22;;;;;;;75.03;41.00;;;;;;;8.22;100.00;100682.63;10336427;28;20496;-82
2023/04/23 00:11:22;;;;;;;73.22;46.70;;;;;;;8.33;100.00;100674.06;10336199;28;20026;-82
2023/04/23 00:16:23;;;;;;;67.13;45.78;;;;;;;8.46;100.00;100668.88;10371687;28;20030;-83
2023/04/23 00:21:26;;;;;;;83.60;49.45;;;;;;;8.54;100.00;100663.34;10376796;28;20034;-82
2023/04/23 00:26:26;;;;;;;63.75;41.78;;;;;;;8.59;100.00;100658.22;10344070;28;20025;-82
2023/04/23 00:31:26;;;;;;;63.22;43.20;;;;;;;8.57;100.00;100654.88;10358979;28;20448;-82
2023/04/23 00:36:28;;;;;;;61.60;41.92;;;;;;;8.40;100.00;100648.03;10358867;28;20073;-81
2023/04/23 00:41:28;;;;;;;62.63;44.28;;;;;;;8.32;100.00;100637.31;10376343;28;20105;-82
2023/04/23 00:46:29;;;;;;;54.88;43.03;;;;;;;8.35;100.00;100631.53;10341602;28;20069;-82
2023/04/23 00:51:31;;;;;;;61.92;44.72;;;;;;;8.45;100.00;100626.69;10325951;28;20038;-82
2023/04/23 00:56:31;;;;;;;64.68;45.42;;;;;;;8.54;100.00;100624.72;10334696;28;20576;-81
2023/04/23 01:01:32;;;;;;;57.30;43.30;;;;;;;8.65;100.00;100626.06;10332682;28;20038;-80
2023/04/23 01:06:32;;;;;;;72.88;42.63;;;;;;;8.69;100.00;100625.53;10364313;28;20034;-82
2023/04/23 01:11:33;;;;;;;65.78;44.00;;;;;;;8.66;100.00;100619.66;10375269;28;20030;-83
2023/04/23 01:16:34;;;;;;;57.58;41.60;;;;;;;8.76;100.00;100617.47;10357231;28;20060;-81
2023/04/23 01:21:35;;;;;;;58.63;42.60;;;;;;;8.85;100.00;100606.34;10359992;28;20042;-82
2023/04/23 01:26:35;;;;;;;60.38;42.42;;;;;;;8.86;100.00;100604.50;10343185;28;20128;-82
2023/04/23 01:31:36;;;;;;;63.45;43.97;;;;;;;8.90;100.00;100602.22;10385175;28;20528;-78
2023/04/23 01:36:36;;;;;;;61.10;42.38;;;;;;;8.96;100.00;100604.16;10373699;28;20109;-82
2023/04/23 01:41:37;;;;;;;58.40;41.85;;;;;;;8.99;100.00;100603.78;10375075;28;20033;-82
2023/04/23 01:46:38;;;;;;;50.45;38.55;;;;;;;9.01;100.00;100607.97;10324395;28;20484;-83
2023/04/23 01:51:39;;;;;;;56.30;40.05;;;;;;;9.02;100.00;100604.22;10339759;28;20081;-82
2023/04/23 01:56:39;;;;;;;51.10;35.05;;;;;;;9.04;100.00;100604.03;10374313;28;20123;-82
2023/04/23 02:01:42;;;;;;;45.58;34.15;;;;;;;9.06;100.00;100594.72;10339686;28;20041;-83
2023/04/23 02:06:44;;;;;;;45.33;33.97;;;;;;;9.05;100.00;100587.63;10384696;28;20045;-83
2023/04/23 02:11:44;;;;;;;49.17;34.58;;;;;;;9.03;100.00;100581.59;10380760;28;20042;-82
2023/04/23 02:16:46;;;;;;;37.80;31.75;;;;;;;9.00;100.00;100579.28;10341762;28;20041;-83
2023/04/23 02:21:46;;;;;;;40.88;31.88;;;;;;;9.05;100.00;100584.09;10372916;28;20378;-81
2023/04/23 02:26:47;;;;;;;45.05;31.75;;;;;;;9.05;100.00;100592.19;10372971;28;20038;-83
2023/04/23 02:31:48;;;;;;;37.90;30.10;;;;;;;8.98;100.00;100581.34;10338559;28;20041;-82
2023/04/23 02:36:48;;;;;;;37.28;27.70;;;;;;;8.89;100.00;100590.59;10354161;28;20064;-82
2023/04/23 02:41:48;;;;;;;40.58;28.27;;;;;;;8.77;100.00;100590.28;10354115;28;20030;-82
2023/04/23 02:46:49;;;;;;;40.97;29.83;;;;;;;8.67;100.00;100591.63;10371422;28;20488;-82
2023/04/23 02:51:50;;;;;;;44.25;30.35;;;;;;;8.69;100.00;100576.94;10371622;28;20054;-82
2023/04/23 02:56:50;;;;;;;38.13;27.27;;;;;;;8.69;100.00;100576.09;10353878;28;20069;-82
2023/04/23 03:01:51;;;;;;;39.10;28.05;;;;;;;8.67;100.00;100580.84;10371746;28;20086;-82
2023/04/23 03:06:51;;;;;;;32.55;26.02;;;;;;;8.69;100.00;100570.69;10371341;28;20425;-82
2023/04/23 03:11:52;;;;;;;41.92;29.33;;;;;;;8.70;100.00;100569.66;10367270;28;20477;-82
2023/04/23 03:16:52;;;;;;;40.63;27.23;;;;;;;8.78;100.00;100566.84;10371116;28;20049;-82
2023/04/23 03:21:52;;;;;;;44.38;29.92;;;;;;;8.86;100.00;100566.69;10353641;28;20493;-83
2023/04/23 03:26:53;;;;;;;38.90;31.05;;;;;;;8.94;100.00;100569.25;10357383;28;20185;-81
2023/04/23 03:31:53;;;;;;;38.45;28.42;;;;;;;9.00;100.00;100564.97;10374130;28;20050;-82
2023/04/23 03:36:54;;;;;;;40.88;29.50;;;;;;;9.08;100.00;100567.50;10370830;28;20529;-81
2023/04/23 03:41:54;;;;;;;34.72;27.83;;;;;;;9.14;100.00;100561.31;10384533;28;20053;-81
2023/04/23 03:46:55;;;;;;;35.13;28.38;;;;;;;9.19;100.00;100560.72;10372233;28;20385;-83
2023/04/23 03:51:55;;;;;;;37.38;28.92;;;;;;;9.24;100.00;100563.66;10373054;28;20054;-81
2023/04/23 03:56:56;;;;;;;38.58;29.60;;;;;;;9.30;100.00;100561.00;10360271;28;20389;-82
2023/04/23 04:01:57;;;;;;;34.03;26.48;;;;;;;9.38;100.00;100559.19;10378186;28;20041;-81
2023/04/23 04:06:59;;;;;;;39.00;26.17;;;;;;;9.36;100.00;100562.09;10380083;28;20523;-83
2023/04/23 04:12:00;;;;;;;32.78;24.83;;;;;;;9.41;100.00;100562.34;10364425;28;20585;-82
2023/04/23 04:17:00;;;;;;;39.78;26.75;;;;;;;9.50;100.00;100558.44;10365888;28;20046;-82
2023/04/23 04:22:02;;;;;;;34.17;23.33;;;;;;;9.54;100.00;100548.06;10377540;28;20030;-82
2023/04/23 04:27:03;;;;;;;28.90;22.38;;;;;;;9.58;100.00;100549.34;10377486;28;20112;-80
2023/04/23 04:32:04;;;;;;;36.72;26.33;;;;;;;9.52;100.00;100540.16;10359548;28;20057;-82
2023/04/23 04:37:04;;;;;;;32.42;23.08;;;;;;;9.42;100.00;100555.06;10358827;28;20481;-83
2023/04/23 04:42:06;;;;;;;29.77;21.88;;;;;;;9.34;100.00;100557.91;10376138;28;20476;-82
2023/04/23 04:47:06;;;;;;;34.00;24.60;;;;;;;9.21;100.00;100553.25;10375478;28;20026;-83
2023/04/23 04:52:07;;;;;;;28.40;23.02;;;;;;;9.21;100.00;100559.47;10357811;28;20050;-82
2023/04/23 04:57:07;;;;;;;32.20;22.23;;;;;;;9.38;100.00;100568.16;10375554;28;20045;-82
2023/04/23 05:02:08;;;;;;;28.77;23.20;;;;;;;9.46;100.00;100569.84;10357506;28;20030;-83
2023/04/23 05:07:08;;;;;;;32.40;24.85;;;;;;;9.41;100.00;100562.34;10357899;28;20049;-83
2023/04/23 05:12:09;;;;;;;32.83;25.42;;;;;;;9.24;100.00;100563.66;10357345;28;20469;-82
2023/04/23 05:17:10;;;;;;;34.38;22.38;;;;;;;9.13;100.00;100559.66;10385629;28;20046;-82
2023/04/23 05:22:10;;;;;;;33.75;23.98;;;;;;;9.14;100.00;100546.97;10358252;28;20034;-84
2023/04/23 05:27:11;;;;;;;38.63;25.00;;;;;;;9.21;100.00;100555.94;10340815;28;20425;-82
2023/04/23 05:32:11;;;;;;;33.83;24.30;;;;;;;9.27;100.00;100557.88;10356384;28;20076;-83
2023/04/23 05:37:11;;;;;;;37.08;25.75;;;;;;;9.34;100.00;100553.34;10356514;28;20438;-83
2023/04/23 05:42:12;;;;;;;31.50;25.10;;;;;;;10.24;100.00;100551.47;10356914;28;20038;-80
2023/04/23 05:47:12;;;;;;;33.75;26.73;;;;;;;11.00;100.00;100543.06;10381734;28;20108;-83
2023/04/23 05:52:13;;;;;;;30.08;23.90;;;;;;;11.73;100.00;100542.91;10342374;28;20042;-80
2023/04/23 05:57:13;;;;;;;34.42;21.42;;;;;;;12.51;100.00;100553.66;10332423;28;20180;-83
2023/04/23 06:02:14;;;;;;;26.70;19.80;;;;;;;13.21;100.00;100553.53;10314964;28;20030;-83
2023/04/23 06:07:15;;;;;;;23.20;16.08;;;;;;;13.78;100.00;100555.25;10332497;28;20065;-84
2023/04/23 06:12:15;;;;;;;19.15;14.75;;;;;;;13.78;100.00;100538.94;10333688;28;20037;-83
2023/04/23 06:17:16;;;;;;;26.38;14.88;;;;;;;13.83;100.00;100530.94;10333632;28;20058;-82
2023/04/23 06:22:16;;;;;;;17.73;13.70;;;;;;;13.98;100.00;100531.38;10309001;28;20030;-82
2023/04/23 06:27:17;;;;;;;19.52;14.02;;;;;;;14.41;100.00;100519.47;10330770;28;20030;-84
2023/04/23 06:32:18;;;;;;;18.63;12.93;;;;;;;15.00;100.00;100520.44;10330302;28;20031;-82
2023/04/23 06:37:18;;;;;;;16.88;11.73;;;;;;;15.52;100.00;100511.53;10335609;28;20049;-83
2023/04/23 06:42:19;;;;;;;18.48;12.50;;;;;;;16.37;100.00;100502.63;10330507;28;20078;-84
2023/04/23 06:47:20;;;;;;;14.13;10.55;;;;;;;16.48;100.00;100496.22;10329992;28;20042;-81
2023/04/23 06:52:20;;;;;;;14.95;10.05;;;;;;;16.15;100.00;100509.84;10338209;28;20025;-84
2023/04/23 06:57:20;;;;;;;14.60;8.50;;;;;;;16.36;100.00;100500.09;10373094;28;20092;-82
2023/04/23 07:02:21;;;;;;;12.07;8.13;;;;;;;16.26;100.00;100501.56;10356977;28;20045;-84
2023/04/23 07:07:21;;;;;;;20.95;8.95;;;;;;;16.00;100.00;100504.91;10372672;28;20042;-83
2023/04/23 07:12:22;;;;;;;7.90;7.05;;;;;;;16.46;100.00;100509.34;10372225;28;20033;-82
2023/04/23 07:17:22;;;;;;;18.50;9.20;;;;;;;16.47;100.00;100505.53;10356261;28;20037;-84
2023/04/23 07:22:24;;;;;;;13.00;7.28;;;;;;;17.36;100.00;100495.75;10382875;28;20038;-83
2023/04/23 07:27:24;;;;;;;13.30;6.68;;;;;;;17.26;100.00;100485.47;10359924;28;20054;-82
2023/04/23 07:32:26;;;;;;;9.68;5.25;;;;;;;17.50;100.00;100487.97;10381349;28;20496;-84
2023/04/23 07:37:27;;;;;;;9.80;7.10;;;;;;;17.46;100.00;100484.94;10330444;28;20053;-79
2023/04/23 07:42:27;;;;;;;8.65;6.47;;;;;;;17.01;100.00;100485.94;10419222;28;20121;-80
2023/04/23 07:47:28;;;;;;;13.13;5.20;;;;;;;17.25;100.00;100492.00;10418759;28;20116;-80
2023/04/23 07:52:28;;;;;;;7.35;5.43;;;;;;;17.42;100.00;100487.34;10431647;28;20033;-83
2023/04/23 07:57:28;;;;;;;8.80;6.43;;;;;;;18.10;100.00;100473.41;10402044;28;20059;-83
2023/04/23 08:02:29;;;;;;;9.07;5.63;;;;;;;18.51;100.00;100477.38;10375805;28;20037;-79
2023/04/23 08:07:29;;;;;;;9.20;5.88;;;;;;;18.58;100.00;100460.69;10364093;28;20613;-79
2023/04/23 08:12:30;;;;;;;6.72;5.38;;;;;;;19.15;100.00;100465.53;10340640;28;20038;-80
2023/04/23 08:17:30;;;;;;;15.73;6.05;;;;;;;18.76;100.00;100460.34;10416225;28;20041;-80
2023/04/23 08:22:31;;;;;;;10.75;4.93;;;;;;;18.11;100.00;100467.66;10403224;28;20433;-79
2023/04/23 08:27:31;;;;;;;9.15;4.22;;;;;;;17.23;100.00;100465.97;10379175;28;20539;-80
2023/04/23 08:32:32;;;;;;;15.43;5.13;;;;;;;16.63;100.00;100473.00;10358618;28;20088;-80
2023/04/23 08:37:33;;;;;;;5.22;4.72;;;;;;;18.18;100.00;100477.59;10375635;28;20063;-80
2023/04/23 08:42:54;;;;;;;9.25;5.97;;;;;;;18.00;100.00;100482.34;10357536;28;20548;-79
2023/04/23 08:47:58;;;;;;;16.20;4.75;;;;;;;17.51;100.00;100481.41;10357837;28;20050;-80
2023/04/23 08:52:59;;;;;;;12.43;6.90;;;;;;;15.91;100.00;100479.88;10375285;28;20032;-80
2023/04/23 08:58:00;;;;;;;15.82;6.35;;;;;;;17.40;100.00;100480.47;10346562;28;20071;-80
2023/04/23 09:03:00;;;;;;;11.82;6.32;;;;;;;18.53;100.00;100477.91;10316265;28;20066;-81
2023/04/23 09:08:01;;;;;;;10.65;7.00;;;;;;;19.39;100.00;100465.94;10284886;28;20145;-82
2023/04/23 09:13:01;;;;;;;8.10;6.97;;;;;;;20.76;100.00;100466.59;10333808;28;20033;-80
2023/04/23 09:18:02;;;;;;;11.38;5.45;;;;;;;20.89;100.00;100452.28;10324245;28;20145;-81
2023/04/23 09:23:06;;;;;;;11.27;5.95;;;;;;;19.61;100.00;100454.78;10353067;28;20022;-81
2023/04/23 09:28:06;;;;;;;10.05;5.15;;;;;;;18.74;100.00;100446.03;10396552;28;20041;-79
2023/04/23 09:33:09;;;;;;;9.38;5.10;;;;;;;19.66;100.00;100448.53;10380798;28;20044;-82
2023/04/23 09:38:09;;;;;;;9.25;5.32;;;;;;;19.38;100.00;100441.50;10396171;28;20045;-82
2023/04/23 09:43:10;;;;;;;9.98;5.72;;;;;;;19.59;100.00;100443.25;10396399;28;20075;-81
2023/04/23 09:48:10;;;;;;;10.00;4.43;;;;;;;19.45;100.00;100431.91;10411710;28;20136;-79
2023/04/23 09:53:11;;;;;;;12.63;4.10;;;;;;;19.24;100.00;100421.91;10372781;28;20030;-80
2023/04/23 09:58:13;;;;;;;4.65;4.25;;;;;;;18.58;100.00;100427.78;10335149;28;20496;-79
2023/04/23 10:03:14;;;;;;;13.52;5.45;;;;;;;18.25;100.00;100426.13;10354364;28;20033;-80
2023/04/23 10:08:15;;;;;;;6.90;3.65;;;;;;;17.79;99.44;100425.66;10353455;28;20057;-80
2023/04/23 10:13:16;;;;;;;4.80;3.75;;;;;;;17.30;100.00;100431.06;10337611;28;20065;-78
2023/04/23 10:18:16;;;;;;;10.93;4.13;;;;;;;17.88;100.00;100422.22;10325592;28;20084;-79
2023/04/23 10:23:19;;;;;;;5.22;3.28;;;;;;;18.36;100.00;100408.69;10384538;28;20025;-79
2023/04/23 10:28:25;;;;;;;6.03;3.88;;;;;;;18.34;100.00;100414.41;10394360;28;20034;-79
2023/04/23 10:33:25;;;;;;;4.73;3.40;;;;;;;18.47;99.50;100395.88;10395230;28;20416;-80
2023/04/23 10:38:27;;;;;;;7.88;3.55;;;;;;;18.03;97.00;100399.63;10393984;28;20037;-78
2023/04/23 10:43:27;;;;;;;10.35;3.35;;;;;;;17.97;96.37;100388.88;10393905;28;20036;-79
2023/04/23 10:48:28;;;;;;;4.53;3.67;;;;;;;18.14;100.00;100375.88;10376528;28;20056;-78
2023/04/23 10:53:28;;;;;;;3.50;2.08;;;;;;;18.00;100.00;100364.53;10393520;28;20072;-79
2023/04/23 10:58:46;;;;;;;4.32;3.42;;;;;;;17.44;99.29;100372.94;10379658;28;20445;-78
2023/04/23 11:03:47;;;;;;;5.13;2.55;;;;;;;17.09;100.00;100361.56;10321794;28;20404;-82
2023/04/23 11:08:55;;;;;;;4.35;2.63;;;;;;;16.78;100.00;100355.66;10353633;28;20037;-79
2023/04/23 11:13:55;;;;;;;3.72;1.88;;;;;;;17.00;100.00;100346.66;10336118;28;20150;-79
2023/04/23 11:19:02;;;;;;;3.38;2.80;;;;;;;17.34;100.00;100345.44;10358054;28;20559;-79
2023/04/23 11:24:02;;;;;;;6.30;3.33;;;;;;;17.51;100.00;100330.84;10353835;28;20038;-78
2023/04/23 11:29:03;;;;;;;6.57;2.53;;;;;;;17.86;100.00;100324.94;10319596;28;20060;-77
2023/04/23 11:34:03;;;;;;;3.90;3.03;;;;;;;18.09;100.00;100315.53;10280859;28;20121;-78
2023/04/23 11:39:05;;;;;;;4.85;1.92;;;;;;;18.11;100.00;100307.91;10318800;28;20112;-78
2023/04/23 11:44:05;;;;;;;3.35;2.08;;;;;;;18.38;100.00;100301.50;10352447;28;20112;-78
2023/04/23 11:49:12;;;;;;;3.08;2.33;;;;;;;18.31;91.01;100294.38;10355486;28;20551;-78
2023/04/23 11:54:13;;;;;;;5.82;2.72;;;;;;;17.72;89.54;100279.88;10371359;28;20044;-80
2023/04/23 11:59:13;;;;;;;2.55;2.35;;;;;;;17.98;93.31;100275.47;10335294;28;20050;-77
2023/04/23 12:04:17;;;;;;;6.82;2.35;;;;;;;17.99;100.00;100272.44;10335117;28;20499;-78
2023/04/23 12:09:18;;;;;;;4.22;3.08;;;;;;;17.44;97.65;100262.63;10335600;28;20079;-78
2023/04/23 12:14:22;;;;;;;8.18;3.17;;;;;;;17.51;93.63;100267.88;10340142;28;20363;-78
2023/04/23 12:19:29;;;;;;;4.20;2.60;;;;;;;17.96;100.00;100244.75;10377801;28;20073;-79
2023/04/23 12:24:43;;;;;;;5.35;2.50;;;;;;;17.32;95.69;100240.06;10343239;28;20029;-79
2023/04/23 12:29:46;;;;;;;8.93;3.10;;;;;;;16.43;100.00;100254.81;10339867;28;20038;-79
2023/04/23 12:34:55;;;;;;;4.57;3.25;;;;;;;16.17;100.00;100248.16;10355588;28;20161;-77
2023/04/23 12:39:58;;;;;;;2.58;1.55;;;;;;;15.42;100.00;100266.56;10357018;28;20092;-76
2023/04/23 12:45:08;;;;;;;8.15;3.05;;;;;;;14.21;100.00;100279.28;10320946;28;20041;-75
2023/04/23 12:50:09;;;;;;;5.35;2.25;;;;;;;13.55;100.00;100278.47;10372783;28;20050;-74
2023/04/23 12:55:10;;;;;;;2.30;1.95;;;;;;;13.00;100.00;100282.94;10357277;28;20042;-74
2023/04/23 13:00:11;;;;;;;3.03;2.20;;;;;;;12.68;100.00;100285.00;10356702;28;20061;-75
2023/04/23 13:05:11;;;;;;;2.58;2.08;;;;;;;13.06;100.00;100274.94;10373786;28;20469;-74
2023/04/23 13:10:12;;;;;;;2.78;2.47;;;;;;;13.37;100.00;100255.72;10356354;28;20030;-76
2023/04/23 13:15:12;;;;;;;6.10;2.60;;;;;;;14.17;100.00;100248.97;10352314;28;20079;-74
2023/04/23 13:20:13;;;;;;;3.17;2.72;;;;;;;14.77;100.00;100236.94;10371616;28;20112;-75
2023/04/23 13:25:13;;;;;;;6.85;3.20;;;;;;;14.72;100.00;100223.22;10322956;28;20596;-75
2023/04/23 13:30:14;;;;;;;9.23;3.72;;;;;;;14.48;100.00;100228.66;10354060;28;20040;-75
2023/04/23 13:35:15;;;;;;;10.63;3.47;;;;;;;14.32;100.00;100226.69;10378556;28;20503;-76
2023/04/23 13:40:16;;;;;;;7.00;4.00;;;;;;;14.25;100.00;100220.53;10372251;28;20041;-75
2023/04/23 13:45:16;;;;;;;7.07;3.53;;;;;;;14.35;100.00;100216.13;10372921;28;20505;-75
2023/04/23 13:50:17;;;;;;;6.15;3.58;;;;;;;14.53;100.00;100198.84;10371770;28;20053;-74
2023/04/23 13:55:17;;;;;;;5.85;3.45;;;;;;;14.45;100.00;100191.00;10371986;28;20034;-75
2023/04/23 14:00:18;;;;;;;6.57;3.33;;;;;;;14.15;100.00;100185.75;10331136;28;20737;-75
2023/04/23 14:05:18;;;;;;;7.07;3.50;;;;;;;14.03;100.00;100187.66;10372120;28;20052;-74
2023/04/23 14:10:19;;;;;;;11.52;4.43;;;;;;;14.04;100.00;100190.16;10355410;28;20034;-75
2023/04/23 14:15:19;;;;;;;8.32;3.47;;;;;;;13.89;100.00;100171.56;10372707;28;20041;-77
2023/04/23 14:20:19;;;;;;;9.15;3.33;;;;;;;13.80;100.00;100169.44;10331615;28;20034;-78
2023/04/23 14:25:25;;;;;;;5.40;3.25;;;;;;;13.51;100.00;100163.03;10371109;28;20127;-74
2023/04/23 14:30:28;;;;;;;3.15;1.92;;;;;;;13.43;100.00;100166.91;10352945;28;20046;-77
2023/04/23 14:35:29;;;;;;;3.35;1.98;;;;;;;12.99;100.00;100167.16;10370263;28;20125;-74
2023/04/23 14:40:29;;;;;;;6.15;2.35;;;;;;;13.08;100.00;100159.50;10352764;28;20034;-74
2023/04/23 14:45:31;;;;;;;4.00;2.00;;;;;;;13.00;100.00;100163.34;10370122;28;20473;-75
2023/04/23 14:50:32;;;;;;;6.25;2.20;;;;;;;12.74;100.00;100155.59;10371449;28;20107;-76
2023/04/23 14:55:32;;;;;;;1.88;1.50;;;;;;;12.51;100.00;100151.72;10334643;28;20030;-76
2023/04/23 15:00:33;;;;;;;4.05;2.70;;;;;;;12.38;100.00;100148.31;10312708;28;20142;-75
2023/04/23 15:05:33;;;;;;;4.30;3.00;;;;;;;12.29;100.00;100140.50;10330290;28;20120;-75
2023/04/23 15:10:34;;;;;;;7.55;2.95;;;;;;;12.13;100.00;100124.00;10296324;28;20142;-75
2023/04/23 15:15:48;;;;;;;2.38;2.17;;;;;;;12.13;100.00;100122.09;10296450;28;20042;-75
2023/04/23 15:20:49;;;;;;;2.42;2.33;;;;;;;12.26;100.00;100112.97;10295924;28;20026;-75
2023/04/23 15:25:49;;;;;;;4.55;2.20;;;;;;;12.14;100.00;100109.34;10312443;28;20486;-75
2023/04/23 15:30:50;;;;;;;4.93;2.60;;;;;;;12.21;100.00;100091.91;10295889;28;20026;-74
2023/04/23 15:35:50;;;;;;;5.65;2.33;;;;;;;12.25;100.00;100095.88;10296112;28;20105;-74
2023/04/23 15:40:50;;;;;;;2.67;1.83;;;;;;;12.26;100.00;100069.53;10329298;28;20030;-74
2023/04/23 15:45:53;;;;;;;10.35;2.53;;;;;;;12.31;100.00;100069.66;10295594;28;20137;-74
2023/04/23 15:50:53;;;;;;;5.43;1.95;;;;;;;12.30;100.00;100074.28;10318754;28;20076;-74
2023/04/23 15:55:54;;;;;;;6.05;2.13;;;;;;;12.27;100.00;100066.59;10337044;28;20137;-74
2023/04/23 16:00:55;;;;;;;1.48;1.38;;;;;;;12.30;100.00;100060.69;10320413;28;20072;-74
2023/04/23 16:05:55;;;;;;;1.30;1.30;;;;;;;12.25;100.00;100057.84;10336786;28;20049;-75
2023/04/23 16:10:57;;;;;;;2.55;2.28;;;;;;;12.19;100.00;100049.78;10318900;28;20061;-75
2023/04/23 16:15:57;;;;;;;6.03;2.97;;;;;;;12.24;100.00;100033.63;10319154;28;20050;-75
2023/04/23 16:20:59;;;;;;;4.63;2.13;;;;;;;12.19;100.00;100030.78;10318458;28;20474;-75
2023/04/23 16:26:00;;;;;;;8.05;1.85;;;;;;;12.05;100.00;100022.00;10335954;28;20529;-75
2023/04/23 16:31:01;;;;;;;5.20;2.05;;;;;;;12.04;100.00;100013.03;10335568;28;20039;-75
2023/04/23 16:36:01;;;;;;;6.10;1.73;;;;;;;11.84;100.00;100004.28;10302164;28;20517;-75
2023/04/23 16:41:02;;;;;;;2.72;2.10;;;;;;;11.62;100.00;99991.19;10335393;28;20536;-74
2023/04/23 16:46:02;;;;;;;12.63;2.13;;;;;;;11.34;100.00;99985.47;10335966;28;20045;-74
2023/04/23 16:51:02;;;;;;;3.80;1.67;;;;;;;11.23;100.00;99984.34;10316280;28;20070;-74
2023/04/23 16:56:03;;;;;;;5.68;2.78;;;;;;;11.12;100.00;99964.19;10317353;28;20117;-75
2023/04/23 17:01:04;;;;;;;5.75;2.47;;;;;;;11.05;100.00;99954.50;10284875;28;20120;-75
2023/04/23 17:06:31;;;;;;;5.00;1.90;;;;;;;10.97;100.00;99941.22;10317051;28;20096;-75
2023/04/23 17:11:31;;;;;;;3.25;2.95;;;;;;;10.94;100.00;99920.81;10308271;28;20045;-74
2023/04/23 17:16:31;;;;;;;1.65;1.55;;;;;;;11.00;100.00;99908.28;10316311;28;20493;-75
2023/04/23 17:21:32;;;;;;;2.30;1.92;;;;;;;10.91;100.00;99908.59;10316244;28;20478;-75
2023/04/23 17:26:32;;;;;;;6.90;2.35;;;;;;;10.89;100.00;99889.00;10316697;28;20089;-75
2023/04/23 17:31:33;;;;;;;10.68;2.13;;;;;;;10.91;100.00;99878.78;10315861;28;20489;-75
2023/04/23 17:36:33;;;;;;;3.95;2.72;;;;;;;10.94;100.00;99872.06;10299672;28;20045;-75
2023/04/23 17:41:34;;;;;;;1.95;1.85;;;;;;;10.92;100.00;99871.50;10315690;28;20026;-74
2023/04/23 17:46:34;;;;;;;9.68;2.88;;;;;;;10.88;100.00;99852.16;10314862;28;20062;-74
2023/04/23 17:51:35;;;;;;;5.90;3.42;;;;;;;10.95;100.00;99849.38;10332864;28;20149;-75
2023/04/23 17:56:35;;;;;;;2.30;2.10;;;;;;;10.88;100.00;99843.19;10315165;28;20405;-75
2023/04/23 18:01:35;;;;;;;3.03;2.35;;;;;;;10.86;100.00;99838.00;10332602;28;20473;-75
2023/04/23 18:06:36;;;;;;;14.27;3.28;;;;;;;10.82;100.00;99825.97;10314858;28;20042;-75
2023/04/23 18:11:37;;;;;;;2.97;2.67;;;;;;;10.84;100.00;99818.44;10313706;28;20034;-75
2023/04/23 18:16:38;;;;;;;2.35;2.20;;;;;;;10.89;100.00;99815.06;10314570;28;20042;-75
2023/04/23 18:21:39;;;;;;;6.68;2.88;;;;;;;10.89;100.00;99805.03;10314030;28;20038;-75
2023/04/23 18:26:39;;;;;;;5.00;3.10;;;;;;;10.90;100.00;99805.88;10298208;28;20069;-75
2023/04/23 18:31:40;;;;;;;8.52;2.70;;;;;;;10.81;100.00;99791.78;10331333;28;20505;-75
2023/04/23 18:36:41;;;;;;;8.13;2.58;;;;;;;10.82;100.00;99788.06;10314406;28;20054;-75
2023/04/23 18:41:41;;;;;;;6.30;2.83;;;;;;;10.87;100.00;99793.59;10282059;28;20042;-75
2023/04/23 18:46:41;;;;;;;4.18;2.53;;;;;;;10.85;100.00;99792.19;10330339;28;20039;-75
2023/04/23 18:51:43;;;;;;;8.75;3.13;;;;;;;10.74;100.00;99790.22;10330755;28;20094;-75
2023/04/23 18:56:46;;;;;;;3.25;2.90;;;;;;;10.69;100.00;99786.31;10296933;28;20092;-76
2023/04/23 19:01:49;;;;;;;7.50;3.10;;;;;;;10.70;100.00;99774.44;10297032;28;20118;-74
2023/04/23 19:06:49;;;;;;;4.95;4.38;;;;;;;10.76;100.00;99778.13;10330346;28;20066;-74
2023/04/23 19:11:50;;;;;;;10.25;4.43;;;;;;;10.69;100.00;99771.97;10332859;28;20066;-75
2023/04/23 19:16:50;;;;;;;5.97;3.97;;;;;;;10.69;100.00;99761.97;10312369;28;20035;-74
2023/04/23 19:21:51;;;;;;;8.90;4.15;;;;;;;10.71;100.00;99761.72;10318364;28;20121;-75
2023/04/23 19:26:51;;;;;;;4.45;3.55;;;;;;;10.64;100.00;99759.09;10343317;28;20062;-75
2023/04/23 19:31:52;;;;;;;3.95;3.28;;;;;;;10.64;100.00;99758.25;10325901;28;20034;-75
2023/04/23 19:36:52;;;;;;;7.18;3.95;;;;;;;10.70;100.00;99755.47;10293452;28;20042;-75
2023/04/23 19:41:53;;;;;;;8.27;2.92;;;;;;;10.70;100.00;99755.47;10326064;28;20034;-75
2023/04/23 19:46:53;;;;;;;11.50;3.40;;;;;;;10.76;100.00;99755.63;10326010;28;20490;-75
2023/04/23 19:51:54;;;;;;;9.05;4.32;;;;;;;10.69;100.00;99747.59;10328485;28;20583;-75
2023/04/23 19:56:54;;;;;;;5.13;4.53;;;;;;;10.64;100.00;99747.44;10325512;28;20061;-75
2023/04/23 20:01:54;;;;;;;11.98;4.55;;;;;;;10.59;100.00;99745.41;10325249;28;20347;-75
2023/04/23 20:06:55;;;;;;;8.35;4.47;;;;;;;10.60;100.00;99740.84;10325254;28;20045;-75
2023/04/23 20:11:55;;;;;;;5.68;5.18;;;;;;;10.61;100.00;99742.47;10308824;28;20030;-75
2023/04/23 20:16:56;;;;;;;10.55;5.40;;;;;;;10.63;100.00;99746.63;10324130;28;20058;-74
2023/04/23 20:21:56;;;;;;;6.28;5.68;;;;;;;10.64;100.00;99742.84;10324877;28;20038;-75
2023/04/23 20:26:57;;;;;;;9.45;5.95;;;;;;;10.67;100.00;99736.97;10291318;28;20034;-74
2023/04/23 20:31:57;;;;;;;6.50;4.70;;;;;;;10.77;100.00;99736.44;10341148;28;20062;-74
2023/04/23 20:36:58;;;;;;;6.35;4.25;;;;;;;10.79;100.00;99728.94;10317934;28;20049;-75
2023/04/23 20:42:00;;;;;;;5.53;4.45;;;;;;;10.81;100.00;99737.63;10301495;28;20073;-75
2023/04/23 20:47:04;;;;;;;10.27;4.38;;;;;;;10.82;100.00;99723.06;10334612;28;20030;-75
2023/04/23 20:52:05;;;;;;;4.07;3.58;;;;;;;10.84;100.00;99726.34;10334633;28;20058;-76
2023/04/23 20:57:06;;;;;;;5.95;4.45;;;;;;;10.79;100.00;99719.97;10334839;28;20038;-75
2023/04/23 21:02:07;;;;;;;8.63;4.35;;;;;;;10.77;100.00;99716.66;10317111;28;20486;-75
2023/04/23 21:07:07;;;;;;;4.72;4.20;;;;;;;10.77;100.00;99719.38;10317280;28;20143;-75
2023/04/23 21:12:08;;;;;;;5.30;4.57;;;;;;;10.82;100.00;99712.22;10300689;28;20073;-75
2023/04/23 21:17:09;;;;;;;5.03;4.53;;;;;;;10.83;100.00;99722.00;10315979;28;20045;-75
2023/04/23 21:22:09;;;;;;;5.63;5.13;;;;;;;10.83;100.00;99711.16;10316723;28;20026;-75
2023/04/23 21:27:10;;;;;;;6.75;5.85;;;;;;;10.71;100.00;99711.09;10333652;28;20196;-74
2023/04/23 21:32:11;;;;;;;7.68;7.10;;;;;;;10.73;100.00;99715.47;10300319;28;20038;-75
2023/04/23 21:37:11;;;;;;;8.98;6.65;;;;;;;10.66;100.00;99723.69;10316847;28;20042;-75
2023/04/23 21:42:11;;;;;;;6.00;4.88;;;;;;;10.60;100.00;99752.47;10315718;28;20430;-75
2023/04/23 21:47:14;;;;;;;5.32;3.67;;;;;;;10.35;100.00;99760.66;10298568;28;20038;-74
2023/04/23 21:52:16;;;;;;;2.88;2.50;;;;;;;10.21;100.00;99761.78;10315330;28;20058;-76
2023/04/23 21:57:16;;;;;;;5.78;3.03;;;;;;;10.18;100.00;99771.22;10332503;28;20042;-75
2023/04/23 22:02:16;;;;;;;1.63;1.52;;;;;;;10.21;100.00;99784.28;10315232;28;20081;-75
2023/04/23 22:07:17;;;;;;;2.15;1.77;;;;;;;9.96;100.00;99795.13;10332979;28;20085;-75
2023/04/23 22:12:18;;;;;;;6.68;1.40;;;;;;;9.55;100.00;99809.97;10332255;28;20377;-75
2023/04/23 22:17:18;;;;;;;4.82;1.70;;;;;;;9.37;100.00;99819.84;10331288;28;20061;-75
2023/04/23 22:22:19;;;;;;;4.63;2.53;;;;;;;9.26;100.00;99827.59;10331843;28;20070;-75
2023/04/23 22:27:20;;;;;;;9.18;2.90;;;;;;;9.26;100.00;99834.88;10298453;28;20038;-75
2023/04/23 22:32:20;;;;;;;18.23;2.58;;;;;;;9.27;100.00;99844.63;10313770;28;20062;-75
2023/04/23 22:37:20;;;;;;;6.93;1.83;;;;;;;9.28;100.00;99848.97;10298037;28;20047;-75
2023/04/23 22:42:21;;;;;;;4.10;1.83;;;;;;;9.27;100.00;99852.72;10313715;28;20038;-75
2023/04/23 22:47:21;;;;;;;6.18;2.30;;;;;;;9.30;100.00;99860.41;10296940;28;20038;-75